sensor_id;sensor_type;location;lat;lon;timestamp;temperature;humidity
1716;DHT22;855;48.824;9.220;2022-11-15T00:08:34;11.20;90.40
1716;DHT22;855;48.824;9.220;2022-11-15T00:11:02;11.20;90.40
1716;DHT22;855;48.824;9.220;2022-11-15T00:13:30;11.30;90.10
1716;DHT22;855;48.824;9.220;2022-11-15T00:16:01;11.20;90.30
1716;DHT22;855;48.824;9.220;2022-11-15T00:28:53;11.20;90.60
1716;DHT22;855;48.824;9.220;2022-11-15T00:34:01;11.10;90.90
1716;DHT22;855;48.824;9.220;2022-11-15T00:39:03;11.10;90.80
1716;DHT22;855;48.824;9.220;2022-11-15T01:48:53;11.30;89.00
1716;DHT22;855;48.824;9.220;2022-11-15T01:54:13;11.30;88.90
1716;DHT22;855;48.824;9.220;2022-11-15T01:56:45;11.20;88.70
1716;DHT22;855;48.824;9.220;2022-11-15T02:09:34;10.50;91.10
1716;DHT22;855;48.824;9.220;2022-11-15T02:14:40;10.50;91.40
1716;DHT22;855;48.824;9.220;2022-11-15T02:17:19;10.30;91.90
1716;DHT22;855;48.824;9.220;2022-11-15T02:20:16;10.20;92.40
1716;DHT22;855;48.824;9.220;2022-11-15T02:22:57;10.00;93.30
1716;DHT22;855;48.824;9.220;2022-11-15T02:25:38;10.00;93.70
1716;DHT22;855;48.824;9.220;2022-11-15T02:46:24;10.00;94.50
1716;DHT22;855;48.824;9.220;2022-11-15T03:17:49;10.60;92.00
1716;DHT22;855;48.824;9.220;2022-11-15T03:20:19;10.70;91.70
1716;DHT22;855;48.824;9.220;2022-11-15T03:22:48;10.70;91.60
1716;DHT22;855;48.824;9.220;2022-11-15T03:25:18;10.60;91.50
1716;DHT22;855;48.824;9.220;2022-11-15T03:38:21;10.20;92.20
1716;DHT22;855;48.824;9.220;2022-11-15T03:40:58;10.20;92.20
1716;DHT22;855;48.824;9.220;2022-11-15T03:43:33;10.10;92.60
1716;DHT22;855;48.824;9.220;2022-11-15T03:46:03;10.00;92.70
1716;DHT22;855;48.824;9.220;2022-11-15T03:48:35;9.80;93.20
1716;DHT22;855;48.824;9.220;2022-11-15T04:03:57;9.60;94.80
1716;DHT22;855;48.824;9.220;2022-11-15T04:16:41;9.60;94.50
1716;DHT22;855;48.824;9.220;2022-11-15T04:21:45;9.60;94.60
1716;DHT22;855;48.824;9.220;2022-11-15T04:24:30;9.60;94.80
1716;DHT22;855;48.824;9.220;2022-11-15T04:26:57;9.50;94.70
1716;DHT22;855;48.824;9.220;2022-11-15T04:29:24;9.40;95.10
1716;DHT22;855;48.824;9.220;2022-11-15T04:34:37;9.60;95.00
1716;DHT22;855;48.824;9.220;2022-11-15T04:37:06;9.60;94.80
1716;DHT22;855;48.824;9.220;2022-11-15T04:39:39;9.60;94.70
1716;DHT22;855;48.824;9.220;2022-11-15T04:42:06;9.60;94.60
1716;DHT22;855;48.824;9.220;2022-11-15T04:52:21;9.40;95.20
1716;DHT22;855;48.824;9.220;2022-11-15T05:12:50;9.70;94.10
1716;DHT22;855;48.824;9.220;2022-11-15T05:28:31;9.80;93.60
1716;DHT22;855;48.824;9.220;2022-11-15T05:38:37;10.20;91.60
1716;DHT22;855;48.824;9.220;2022-11-15T05:41:05;10.00;91.70
1716;DHT22;855;48.824;9.220;2022-11-15T05:43:36;10.00;92.00
1716;DHT22;855;48.824;9.220;2022-11-15T05:46:04;9.80;92.40
1716;DHT22;855;48.824;9.220;2022-11-15T05:48:32;9.80;92.70
1716;DHT22;855;48.824;9.220;2022-11-15T05:51:01;9.60;93.30
1716;DHT22;855;48.824;9.220;2022-11-15T05:53:30;9.60;93.70
1716;DHT22;855;48.824;9.220;2022-11-15T05:56:02;9.60;93.60
1716;DHT22;855;48.824;9.220;2022-11-15T05:58:32;9.50;93.70
1716;DHT22;855;48.824;9.220;2022-11-15T06:01:00;9.50;93.90
1716;DHT22;855;48.824;9.220;2022-11-15T06:03:28;9.50;93.90
1716;DHT22;855;48.824;9.220;2022-11-15T06:05:56;9.40;93.80
1716;DHT22;855;48.824;9.220;2022-11-15T06:08:23;9.30;94.00
1716;DHT22;855;48.824;9.220;2022-11-15T06:10:50;9.30;94.10
1716;DHT22;855;48.824;9.220;2022-11-15T06:13:20;9.30;94.00
1716;DHT22;855;48.824;9.220;2022-11-15T06:15:49;9.30;94.10
1716;DHT22;855;48.824;9.220;2022-11-15T06:18:16;9.30;94.20
1716;DHT22;855;48.824;9.220;2022-11-15T06:20:43;9.30;94.20
1716;DHT22;855;48.824;9.220;2022-11-15T06:31:06;9.50;93.90
1716;DHT22;855;48.824;9.220;2022-11-15T06:39:02;9.40;93.80
1716;DHT22;855;48.824;9.220;2022-11-15T07:02:13;9.60;93.50
1716;DHT22;855;48.824;9.220;2022-11-15T07:04:47;9.70;93.10
1716;DHT22;855;48.824;9.220;2022-11-15T07:07:16;9.70;92.90
1716;DHT22;855;48.824;9.220;2022-11-15T07:09:43;9.70;92.80
1716;DHT22;855;48.824;9.220;2022-11-15T07:12:10;9.80;93.80
1716;DHT22;855;48.824;9.220;2022-11-15T07:14:37;9.90;94.20
1716;DHT22;855;48.824;9.220;2022-11-15T07:17:04;9.90;93.90
1716;DHT22;855;48.824;9.220;2022-11-15T07:19:32;10.00;93.60
1716;DHT22;855;48.824;9.220;2022-11-15T07:21:59;10.10;93.50
1716;DHT22;855;48.824;9.220;2022-11-15T07:24:26;10.20;92.90
1716;DHT22;855;48.824;9.220;2022-11-15T07:26:52;10.30;92.60
1716;DHT22;855;48.824;9.220;2022-11-15T07:29:19;10.40;92.40
1716;DHT22;855;48.824;9.220;2022-11-15T07:31:46;10.50;91.90
1716;DHT22;855;48.824;9.220;2022-11-15T07:34:13;10.60;91.50
1716;DHT22;855;48.824;9.220;2022-11-15T07:36:42;10.70;91.40
1716;DHT22;855;48.824;9.220;2022-11-15T07:39:08;10.80;91.10
1716;DHT22;855;48.824;9.220;2022-11-15T07:41:37;10.70;89.30
1716;DHT22;855;48.824;9.220;2022-11-15T07:44:05;10.80;89.10
1716;DHT22;855;48.824;9.220;2022-11-15T07:46:32;10.70;88.70
1716;DHT22;855;48.824;9.220;2022-11-15T07:48:59;10.60;89.40
1716;DHT22;855;48.824;9.220;2022-11-15T07:51:27;10.60;89.40
1716;DHT22;855;48.824;9.220;2022-11-15T07:53:55;10.60;89.40
1716;DHT22;855;48.824;9.220;2022-11-15T07:56:22;10.50;89.30
1716;DHT22;855;48.824;9.220;2022-11-15T07:58:49;10.60;89.40
1716;DHT22;855;48.824;9.220;2022-11-15T08:01:16;10.60;89.40
1716;DHT22;855;48.824;9.220;2022-11-15T08:03:43;10.70;89.10
1716;DHT22;855;48.824;9.220;2022-11-15T08:06:10;10.80;88.60
1716;DHT22;855;48.824;9.220;2022-11-15T08:08:36;10.80;88.70
1716;DHT22;855;48.824;9.220;2022-11-15T08:11:05;11.00;88.70
1716;DHT22;855;48.824;9.220;2022-11-15T08:13:32;11.10;88.50
1716;DHT22;855;48.824;9.220;2022-11-15T08:15:59;11.30;87.50
1716;DHT22;855;48.824;9.220;2022-11-15T08:18:26;11.50;87.50
1716;DHT22;855;48.824;9.220;2022-11-15T08:20:53;11.70;86.40
1716;DHT22;855;48.824;9.220;2022-11-15T08:23:19;11.70;85.40
1716;DHT22;855;48.824;9.220;2022-11-15T08:25:48;11.80;85.20
1716;DHT22;855;48.824;9.220;2022-11-15T08:28:17;12.00;84.60
1716;DHT22;855;48.824;9.220;2022-11-15T08:30:44;12.10;84.10
1716;DHT22;855;48.824;9.220;2022-11-15T08:33:12;12.20;83.70
1716;DHT22;855;48.824;9.220;2022-11-15T08:35:39;12.30;83.60
1716;DHT22;855;48.824;9.220;2022-11-15T08:38:06;12.30;83.00
1716;DHT22;855;48.824;9.220;2022-11-15T08:40:33;12.20;83.00
1716;DHT22;855;48.824;9.220;2022-11-15T08:45:37;12.20;83.40
1716;DHT22;855;48.824;9.220;2022-11-15T08:55:48;12.60;81.90
1716;DHT22;855;48.824;9.220;2022-11-15T08:58:15;12.70;81.50
1716;DHT22;855;48.824;9.220;2022-11-15T09:00:43;12.80;80.90
1716;DHT22;855;48.824;9.220;2022-11-15T09:03:10;12.90;80.00
1716;DHT22;855;48.824;9.220;2022-11-15T09:05:37;13.00;80.70
1716;DHT22;855;48.824;9.220;2022-11-15T09:08:04;13.10;80.90
1716;DHT22;855;48.824;9.220;2022-11-15T09:10:31;13.30;79.50
1716;DHT22;855;48.824;9.220;2022-11-15T09:12:58;13.30;78.30
1716;DHT22;855;48.824;9.220;2022-11-15T09:15:25;13.40;78.30
1716;DHT22;855;48.824;9.220;2022-11-15T09:20:29;13.70;77.80
1716;DHT22;855;48.824;9.220;2022-11-15T09:25:31;14.00;76.60
1716;DHT22;855;48.824;9.220;2022-11-15T09:27:59;14.10;76.70
1716;DHT22;855;48.824;9.220;2022-11-15T09:35:33;14.40;74.50
1716;DHT22;855;48.824;9.220;2022-11-15T09:38:00;14.40;73.70
1716;DHT22;855;48.824;9.220;2022-11-15T09:40:29;14.50;74.10
1716;DHT22;855;48.824;9.220;2022-11-15T09:45:34;14.70;73.10
1716;DHT22;855;48.824;9.220;2022-11-15T09:50:43;14.90;72.90
1716;DHT22;855;48.824;9.220;2022-11-15T09:55:55;15.00;73.80
1716;DHT22;855;48.824;9.220;2022-11-15T09:58:28;15.10;73.80
1716;DHT22;855;48.824;9.220;2022-11-15T10:00:58;15.10;75.00
1716;DHT22;855;48.824;9.220;2022-11-15T10:03:28;15.20;74.20
1716;DHT22;855;48.824;9.220;2022-11-15T10:08:37;15.60;73.70
1716;DHT22;855;48.824;9.220;2022-11-15T10:11:10;15.80;72.60
1716;DHT22;855;48.824;9.220;2022-11-15T10:13:43;15.70;70.60
1716;DHT22;855;48.824;9.220;2022-11-15T10:16:33;15.70;69.30
1716;DHT22;855;48.824;9.220;2022-11-15T10:19:10;15.70;69.60
1716;DHT22;855;48.824;9.220;2022-11-15T10:24:19;15.80;68.90
1716;DHT22;855;48.824;9.220;2022-11-15T10:26:47;15.80;69.40
1716;DHT22;855;48.824;9.220;2022-11-15T10:29:18;15.90;70.00
1716;DHT22;855;48.824;9.220;2022-11-15T10:31:45;16.10;70.50
1716;DHT22;855;48.824;9.220;2022-11-15T10:36:45;16.10;70.00
1716;DHT22;855;48.824;9.220;2022-11-15T10:39:13;16.00;68.80
1716;DHT22;855;48.824;9.220;2022-11-15T10:41:42;16.00;69.40
1716;DHT22;855;48.824;9.220;2022-11-15T10:44:22;16.00;69.80
1716;DHT22;855;48.824;9.220;2022-11-15T10:47:05;16.00;68.90
1716;DHT22;855;48.824;9.220;2022-11-15T10:49:34;16.00;70.20
1716;DHT22;855;48.824;9.220;2022-11-15T10:52:04;16.10;69.60
1716;DHT22;855;48.824;9.220;2022-11-15T10:57:17;16.20;70.40
1716;DHT22;855;48.824;9.220;2022-11-15T10:59:46;16.30;70.60
1716;DHT22;855;48.824;9.220;2022-11-15T11:02:33;16.40;70.00
1716;DHT22;855;48.824;9.220;2022-11-15T11:05:01;16.50;69.20
1716;DHT22;855;48.824;9.220;2022-11-15T11:07:30;16.50;69.00
1716;DHT22;855;48.824;9.220;2022-11-15T11:10:00;16.50;68.90
1716;DHT22;855;48.824;9.220;2022-11-15T11:12:30;16.40;69.30
1716;DHT22;855;48.824;9.220;2022-11-15T11:15:00;16.40;68.40
1716;DHT22;855;48.824;9.220;2022-11-15T11:17:36;16.50;69.30
1716;DHT22;855;48.824;9.220;2022-11-15T11:20:12;16.60;69.20
1716;DHT22;855;48.824;9.220;2022-11-15T11:22:55;16.60;69.60
1716;DHT22;855;48.824;9.220;2022-11-15T11:28:11;16.60;68.90
1716;DHT22;855;48.824;9.220;2022-11-15T11:30:48;16.60;68.50
1716;DHT22;855;48.824;9.220;2022-11-15T11:33:18;16.50;68.40
1716;DHT22;855;48.824;9.220;2022-11-15T11:35:54;16.40;68.00
1716;DHT22;855;48.824;9.220;2022-11-15T11:38:42;16.50;68.80
1716;DHT22;855;48.824;9.220;2022-11-15T11:41:18;16.40;68.80
1716;DHT22;855;48.824;9.220;2022-11-15T11:43:59;16.40;68.80
1716;DHT22;855;48.824;9.220;2022-11-15T11:46:47;16.50;69.60
1716;DHT22;855;48.824;9.220;2022-11-15T12:15:15;16.90;67.60
1716;DHT22;855;48.824;9.220;2022-11-15T12:28:13;16.90;69.20
1716;DHT22;855;48.824;9.220;2022-11-15T12:45:01;17.30;67.90
1716;DHT22;855;48.824;9.220;2022-11-15T13:40:26;17.00;70.20
1716;DHT22;855;48.824;9.220;2022-11-15T13:48:08;16.80;71.00
1716;DHT22;855;48.824;9.220;2022-11-15T13:50:37;16.60;70.80
